sensor_id;sensor_type;location;lat;lon;timestamp;pressure;altitude;pressure_sealevel;temperature;humidity
64841;BME280;51307;52.162;7.560;2022-10-17T00:01:05;101269.59;;;13.61;100.00
64841;BME280;51307;52.162;7.560;2022-10-17T00:03:31;101270.56;;;13.59;100.00
64841;BME280;51307;52.162;7.560;2022-10-17T00:05:56;101274.19;;;13.58;100.00
64841;BME280;51307;52.162;7.560;2022-10-17T00:08:22;101278.63;;;13.58;100.00
64841;BME280;51307;52.162;7.560;2022-10-17T00:10:56;101282.22;;;13.57;100.00
64841;BME280;51307;52.162;7.560;2022-10-17T00:13:22;101277.13;;;13.55;100.00
64841;BME280;51307;52.162;7.560;2022-10-17T00:15:48;101269.44;;;13.54;100.00
64841;BME280;51307;52.162;7.560;2022-10-17T00:18:13;101279.09;;;13.53;100.00
64841;BME280;51307;52.162;7.560;2022-10-17T00:20:39;101267.94;;;13.51;100.00
64841;BME280;51307;52.162;7.560;2022-10-17T00:23:04;101261.03;;;13.50;100.00
64841;BME280;51307;52.162;7.560;2022-10-17T00:25:30;101247.13;;;13.50;100.00
64841;BME280;51307;52.162;7.560;2022-10-17T00:27:55;101250.88;;;13.47;100.00
64841;BME280;51307;52.162;7.560;2022-10-17T00:30:21;101242.34;;;13.45;100.00
64841;BME280;51307;52.162;7.560;2022-10-17T00:32:46;101247.75;;;13.44;100.00
64841;BME280;51307;52.162;7.560;2022-10-17T00:35:12;101253.00;;;13.44;100.00
64841;BME280;51307;52.162;7.560;2022-10-17T00:37:37;101254.00;;;13.43;100.00
64841;BME280;51307;52.162;7.560;2022-10-17T00:40:05;101258.41;;;13.42;100.00
64841;BME280;51307;52.162;7.560;2022-10-17T00:42:30;101261.88;;;13.43;100.00
64841;BME280;51307;52.162;7.560;2022-10-17T00:45:07;101261.88;;;13.43;100.00
64841;BME280;51307;52.162;7.560;2022-10-17T00:47:37;101267.09;;;13.43;100.00
64841;BME280;51307;52.162;7.560;2022-10-17T00:50:05;101261.03;;;13.42;100.00
64841;BME280;51307;52.162;7.560;2022-10-17T00:52:32;101269.72;;;13.43;100.00
64841;BME280;51307;52.162;7.560;2022-10-17T00:55:09;101261.03;;;13.42;100.00
64841;BME280;51307;52.162;7.560;2022-10-17T00:57:38;101246.28;;;13.41;100.00
64841;BME280;51307;52.162;7.560;2022-10-17T01:00:07;101251.66;;;13.40;100.00
64841;BME280;51307;52.162;7.560;2022-10-17T01:02:33;101250.84;;;13.39;100.00
64841;BME280;51307;52.162;7.560;2022-10-17T01:04:59;101243.13;;;13.37;100.00
64841;BME280;51307;52.162;7.560;2022-10-17T01:07:27;101246.75;;;13.36;100.00
64841;BME280;51307;52.162;7.560;2022-10-17T01:09:53;101241.50;;;13.36;100.00
64841;BME280;51307;52.162;7.560;2022-10-17T01:17:59;101225.09;;;13.34;100.00
64841;BME280;51307;52.162;7.560;2022-10-17T01:37:47;101215.09;;;13.38;100.00
64841;BME280;51307;52.162;7.560;2022-10-17T01:45:20;101212.97;;;13.42;100.00
64841;BME280;51307;52.162;7.560;2022-10-17T01:47:51;101204.31;;;13.41;100.00
64841;BME280;51307;52.162;7.560;2022-10-17T01:50:24;101201.69;;;13.41;100.00
64841;BME280;51307;52.162;7.560;2022-10-17T01:53:02;101206.09;;;13.41;100.00
64841;BME280;51307;52.162;7.560;2022-10-17T01:55:36;101208.72;;;13.41;100.00
64841;BME280;51307;52.162;7.560;2022-10-17T02:00:39;101198.25;;;13.41;100.00
64841;BME280;51307;52.162;7.560;2022-10-17T02:03:12;101198.25;;;13.41;100.00
64841;BME280;51307;52.162;7.560;2022-10-17T02:05:42;101206.09;;;13.41;100.00
64841;BME280;51307;52.162;7.560;2022-10-17T02:08:08;101201.03;;;13.39;100.00
64841;BME280;51307;52.162;7.560;2022-10-17T02:10:56;101191.34;;;13.40;100.00
64841;BME280;51307;52.162;7.560;2022-10-17T02:16:21;101201.03;;;13.39;100.00
64841;BME280;51307;52.162;7.560;2022-10-17T02:21:54;101186.25;;;13.38;100.00
64841;BME280;51307;52.162;7.560;2022-10-17T02:29:46;101182.16;;;13.35;100.00
64841;BME280;51307;52.162;7.560;2022-10-17T02:32:22;101184.09;;;13.33;100.00
64841;BME280;51307;52.162;7.560;2022-10-17T02:34:54;101189.53;;;13.32;100.00
64841;BME280;51307;52.162;7.560;2022-10-17T02:37:27;101195.94;;;13.29;100.00
64841;BME280;51307;52.162;7.560;2022-10-17T02:39:57;101184.78;;;13.27;100.00
64841;BME280;51307;52.162;7.560;2022-10-17T02:42:26;101185.88;;;13.25;100.00
64841;BME280;51307;52.162;7.560;2022-10-17T02:44:58;101179.03;;;13.24;100.00
64841;BME280;51307;52.162;7.560;2022-10-17T02:47:36;101175.59;;;13.23;100.00
64841;BME280;51307;52.162;7.560;2022-10-17T02:50:06;101174.75;;;13.23;100.00
64841;BME280;51307;52.162;7.560;2022-10-17T02:57:34;101184.91;;;13.17;100.00
64841;BME280;51307;52.162;7.560;2022-10-17T03:00:03;101187.53;;;13.17;100.00
64841;BME280;51307;52.162;7.560;2022-10-17T03:02:41;101194.56;;;13.17;100.00
64841;BME280;51307;52.162;7.560;2022-10-17T03:05:08;101188.50;;;13.16;100.00
64841;BME280;51307;52.162;7.560;2022-10-17T03:07:34;101195.53;;;13.16;100.00
64841;BME280;51307;52.162;7.560;2022-10-17T03:10:00;101188.66;;;13.15;100.00
64841;BME280;51307;52.162;7.560;2022-10-17T03:12:25;101188.50;;;13.16;100.00
64841;BME280;51307;52.162;7.560;2022-10-17T03:14:51;101186.03;;;13.15;100.00
64841;BME280;51307;52.162;7.560;2022-10-17T03:17:16;101179.00;;;13.15;100.00
64841;BME280;51307;52.162;7.560;2022-10-17T03:19:41;101184.22;;;13.15;100.00
64841;BME280;51307;52.162;7.560;2022-10-17T03:22:08;101178.19;;;13.15;100.00
64841;BME280;51307;52.162;7.560;2022-10-17T03:24:33;101174.56;;;13.16;100.00
64841;BME280;51307;52.162;7.560;2022-10-17T03:26:58;101175.41;;;13.16;100.00
64841;BME280;51307;52.162;7.560;2022-10-17T03:29:24;101179.66;;;13.17;100.00
64841;BME280;51307;52.162;7.560;2022-10-17T03:31:49;101176.22;;;13.17;100.00
64841;BME280;51307;52.162;7.560;2022-10-17T03:34:15;101172.78;;;13.16;100.00
64841;BME280;51307;52.162;7.560;2022-10-17T03:36:44;101181.47;;;13.17;100.00
64841;BME280;51307;52.162;7.560;2022-10-17T03:39:09;101181.47;;;13.17;100.00
64841;BME280;51307;52.162;7.560;2022-10-17T03:41:35;101178.84;;;13.17;100.00
64841;BME280;51307;52.162;7.560;2022-10-17T03:44:01;101182.44;;;13.16;100.00
64841;BME280;51307;52.162;7.560;2022-10-17T03:46:26;101186.03;;;13.15;100.00
64841;BME280;51307;52.162;7.560;2022-10-17T03:48:52;101195.53;;;13.16;100.00
64841;BME280;51307;52.162;7.560;2022-10-17T03:51:17;101182.44;;;13.16;100.00
64841;BME280;51307;52.162;7.560;2022-10-17T03:53:43;101190.47;;;13.14;100.00
64841;BME280;51307;52.162;7.560;2022-10-17T03:56:11;101192.28;;;13.14;100.00
64841;BME280;51307;52.162;7.560;2022-10-17T03:58:36;101176.69;;;13.12;100.00
64841;BME280;51307;52.162;7.560;2022-10-17T04:01:04;101192.28;;;13.14;100.00
64841;BME280;51307;52.162;7.560;2022-10-17T04:03:29;101197.00;;;13.10;100.00
64841;BME280;51307;52.162;7.560;2022-10-17T04:05:58;101197.00;;;13.10;100.00
64841;BME280;51307;52.162;7.560;2022-10-17T04:08:25;101197.16;;;13.09;100.00
64841;BME280;51307;52.162;7.560;2022-10-17T04:10:51;101201.44;;;13.10;100.00
64841;BME280;51307;52.162;7.560;2022-10-17T04:13:16;101199.63;;;13.10;100.00
64841;BME280;51307;52.162;7.560;2022-10-17T04:15:42;101198.97;;;13.08;100.00
64841;BME280;51307;52.162;7.560;2022-10-17T04:18:17;101198.16;;;13.08;100.00
64841;BME280;51307;52.162;7.560;2022-10-17T04:20:42;101199.13;;;13.07;100.00
64841;BME280;51307;52.162;7.560;2022-10-17T04:23:08;101198.31;;;13.06;100.00
64841;BME280;51307;52.162;7.560;2022-10-17T04:25:33;101207.66;;;13.09;100.00
64841;BME280;51307;52.162;7.560;2022-10-17T04:27:59;101201.59;;;13.08;100.00
64841;BME280;51307;52.162;7.560;2022-10-17T04:30:24;101199.78;;;13.09;100.00
64841;BME280;51307;52.162;7.560;2022-10-17T04:32:50;101199.63;;;13.10;100.00
64841;BME280;51307;52.162;7.560;2022-10-17T04:35:15;101205.69;;;13.11;100.00
64841;BME280;51307;52.162;7.560;2022-10-17T04:37:41;101196.03;;;13.11;100.00
64841;BME280;51307;52.162;7.560;2022-10-17T04:40:07;101200.31;;;13.12;100.00
64841;BME280;51307;52.162;7.560;2022-10-17T04:42:32;101207.16;;;13.13;100.00
64841;BME280;51307;52.162;7.560;2022-10-17T04:44:58;101206.22;;;13.14;100.00
64841;BME280;51307;52.162;7.560;2022-10-17T04:47:23;101205.22;;;13.15;100.00
64841;BME280;51307;52.162;7.560;2022-10-17T04:49:49;101206.03;;;13.16;100.00
64841;BME280;51307;52.162;7.560;2022-10-17T04:52:14;101203.41;;;13.16;100.00
64841;BME280;51307;52.162;7.560;2022-10-17T04:54:40;101194.56;;;13.17;100.00
64841;BME280;51307;52.162;7.560;2022-10-17T04:57:05;101207.69;;;13.17;100.00
64841;BME280;51307;52.162;7.560;2022-10-17T04:59:31;101205.72;;;13.19;100.00
64841;BME280;51307;52.162;7.560;2022-10-17T05:01:56;101200.47;;;13.19;100.00
64841;BME280;51307;52.162;7.560;2022-10-17T05:04:22;101195.25;;;13.19;100.00
64841;BME280;51307;52.162;7.560;2022-10-17T05:06:47;101198.69;;;13.20;100.00
64841;BME280;51307;52.162;7.560;2022-10-17T05:09:13;101193.44;;;13.20;100.00
64841;BME280;51307;52.162;7.560;2022-10-17T05:11:38;101184.75;;;13.19;100.00
64841;BME280;51307;52.162;7.560;2022-10-17T05:14:04;101183.75;;;13.20;100.00
64841;BME280;51307;52.162;7.560;2022-10-17T05:16:30;101183.75;;;13.20;100.00
64841;BME280;51307;52.162;7.560;2022-10-17T05:18:56;101182.78;;;13.21;100.00
64841;BME280;51307;52.162;7.560;2022-10-17T05:21:24;101187.84;;;13.23;100.00
64841;BME280;51307;52.162;7.560;2022-10-17T05:23:51;101187.03;;;13.22;100.00
64841;BME280;51307;52.162;7.560;2022-10-17T05:26:17;101192.47;;;13.21;100.00
64841;BME280;51307;52.162;7.560;2022-10-17T05:28:43;101189.84;;;13.21;100.00
64841;BME280;51307;52.162;7.560;2022-10-17T05:31:09;101190.00;;;13.19;100.00
64841;BME280;51307;52.162;7.560;2022-10-17T05:33:36;101195.09;;;13.21;100.00
64841;BME280;51307;52.162;7.560;2022-10-17T05:36:03;101194.25;;;13.20;100.00
64841;BME280;51307;52.162;7.560;2022-10-17T05:38:29;101188.84;;;13.22;100.00
64841;BME280;51307;52.162;7.560;2022-10-17T05:40:59;101194.09;;;13.22;100.00
64841;BME280;51307;52.162;7.560;2022-10-17T05:43:26;101204.25;;;13.25;100.00
64841;BME280;51307;52.162;7.560;2022-10-17T05:45:52;101201.47;;;13.26;100.00
64841;BME280;51307;52.162;7.560;2022-10-17T05:48:18;101221.50;;;13.27;100.00
64841;BME280;51307;52.162;7.560;2022-10-17T05:50:45;101226.75;;;13.27;100.00
64841;BME280;51307;52.162;7.560;2022-10-17T05:53:10;101226.75;;;13.27;100.00
64841;BME280;51307;52.162;7.560;2022-10-17T05:55:35;101229.50;;;13.26;100.00
64841;BME280;51307;52.162;7.560;2022-10-17T05:58:01;101231.00;;;13.28;100.00
64841;BME280;51307;52.162;7.560;2022-10-17T06:00:27;101224.94;;;13.28;100.00
64841;BME280;51307;52.162;7.560;2022-10-17T06:02:52;101230.03;;;13.29;100.00
64841;BME280;51307;52.162;7.560;2022-10-17T06:05:19;101232.66;;;13.29;100.00
64841;BME280;51307;52.162;7.560;2022-10-17T06:07:44;101229.03;;;13.30;100.00
64841;BME280;51307;52.162;7.560;2022-10-17T06:10:10;101238.84;;;13.28;100.00
64841;BME280;51307;52.162;7.560;2022-10-17T06:12:38;101236.22;;;13.28;100.00
64841;BME280;51307;52.162;7.560;2022-10-17T06:15:04;101231.97;;;13.27;100.00
64841;BME280;51307;52.162;7.560;2022-10-17T06:17:29;101232.66;;;13.29;100.00
64841;BME280;51307;52.162;7.560;2022-10-17T06:19:55;101233.63;;;13.28;100.00
64841;BME280;51307;52.162;7.560;2022-10-17T06:22:22;101244.91;;;13.29;100.00
64841;BME280;51307;52.162;7.560;2022-10-17T06:24:47;101246.56;;;13.30;100.00
64841;BME280;51307;52.162;7.560;2022-10-17T06:27:13;101248.19;;;13.31;100.00
64841;BME280;51307;52.162;7.560;2022-10-17T06:29:38;101250.69;;;13.32;100.00
64841;BME280;51307;52.162;7.560;2022-10-17T06:32:05;101251.34;;;13.34;100.00
64841;BME280;51307;52.162;7.560;2022-10-17T06:34:30;101257.25;;;13.36;100.00
64841;BME280;51307;52.162;7.560;2022-10-17T06:36:56;101260.53;;;13.38;100.00
64841;BME280;51307;52.162;7.560;2022-10-17T06:39:21;101262.00;;;13.41;100.00
64841;BME280;51307;52.162;7.560;2022-10-17T06:41:49;101269.72;;;13.43;100.00
64841;BME280;51307;52.162;7.560;2022-10-17T06:44:14;101274.78;;;13.44;100.00
64841;BME280;51307;52.162;7.560;2022-10-17T06:46:40;101272.69;;;13.48;100.00
64841;BME280;51307;52.162;7.560;2022-10-17T06:49:06;101280.56;;;13.48;100.00
64841;BME280;51307;52.162;7.560;2022-10-17T06:51:34;101292.69;;;13.49;100.00
64841;BME280;51307;52.162;7.560;2022-10-17T06:54:00;101301.22;;;13.51;100.00
64841;BME280;51307;52.162;7.560;2022-10-17T06:56:26;101293.34;;;13.51;100.00
64841;BME280;51307;52.162;7.560;2022-10-17T06:58:52;101304.50;;;13.53;100.00
64841;BME280;51307;52.162;7.560;2022-10-17T07:01:18;101307.78;;;13.55;100.00
64841;BME280;51307;52.162;7.560;2022-10-17T07:03:47;101312.75;;;13.58;100.00
64841;BME280;51307;52.162;7.560;2022-10-17T07:06:13;101308.31;;;13.58;100.00
64841;BME280;51307;52.162;7.560;2022-10-17T07:08:43;101301.25;;;13.59;100.00
64841;BME280;51307;52.162;7.560;2022-10-17T07:11:11;101305.34;;;13.62;100.00
64841;BME280;51307;52.162;7.560;2022-10-17T07:13:36;101301.75;;;13.63;100.00
64841;BME280;51307;52.162;7.560;2022-10-17T07:16:02;101298.97;;;13.64;100.00
64841;BME280;51307;52.162;7.560;2022-10-17T07:18:28;101306.53;;;13.67;100.00
64841;BME280;51307;52.162;7.560;2022-10-17T07:20:54;101303.72;;;13.69;100.00
64841;BME280;51307;52.162;7.560;2022-10-17T07:23:20;101308.00;;;13.70;100.00
64841;BME280;51307;52.162;7.560;2022-10-17T07:25:45;101305.38;;;13.70;100.00
64841;BME280;51307;52.162;7.560;2022-10-17T07:28:11;101315.72;;;13.71;100.00
64841;BME280;51307;52.162;7.560;2022-10-17T07:30:38;101314.41;;;13.75;100.00
64841;BME280;51307;52.162;7.560;2022-10-17T07:33:03;101316.56;;;13.80;100.00
64841;BME280;51307;52.162;7.560;2022-10-17T07:35:28;101315.22;;;13.84;100.00
64841;BME280;51307;52.162;7.560;2022-10-17T07:37:54;101318.53;;;13.86;100.00
64841;BME280;51307;52.162;7.560;2022-10-17T07:40:19;101315.75;;;13.88;100.00
64841;BME280;51307;52.162;7.560;2022-10-17T07:42:45;101323.28;;;13.91;100.00
64841;BME280;51307;52.162;7.560;2022-10-17T07:45:10;101323.94;;;13.93;100.00
64841;BME280;51307;52.162;7.560;2022-10-17T07:47:36;101313.28;;;13.94;100.00
64841;BME280;51307;52.162;7.560;2022-10-17T07:50:03;101322.50;;;13.98;100.00
64841;BME280;51307;52.162;7.560;2022-10-17T07:52:28;101317.09;;;14.00;100.00
64841;BME280;51307;52.162;7.560;2022-10-17T07:54:54;101320.38;;;14.02;100.00
64841;BME280;51307;52.162;7.560;2022-10-17T07:57:19;101321.00;;;14.04;100.00
64841;BME280;51307;52.162;7.560;2022-10-17T07:59:45;101323.47;;;14.06;100.00
64841;BME280;51307;52.162;7.560;2022-10-17T08:02:23;101319.69;;;14.08;100.00
64841;BME280;51307;52.162;7.560;2022-10-17T08:04:50;101321.03;;;14.12;100.00
64841;BME280;51307;52.162;7.560;2022-10-17T08:07:16;101318.25;;;14.14;100.00
64841;BME280;51307;52.162;7.560;2022-10-17T08:09:42;101315.47;;;14.15;100.00
64841;BME280;51307;52.162;7.560;2022-10-17T08:12:08;101312.50;;;14.18;100.00
64841;BME280;51307;52.162;7.560;2022-10-17T08:14:34;101320.91;;;14.22;100.00
64841;BME280;51307;52.162;7.560;2022-10-17T08:16:59;101325.00;;;14.25;100.00
64841;BME280;51307;52.162;7.560;2022-10-17T08:19:24;101326.31;;;14.29;100.00
64841;BME280;51307;52.162;7.560;2022-10-17T08:21:50;101324.19;;;14.32;100.00
64841;BME280;51307;52.162;7.560;2022-10-17T08:24:16;101327.97;;;14.38;100.00
64841;BME280;51307;52.162;7.560;2022-10-17T08:26:42;101322.38;;;14.41;100.00
64841;BME280;51307;52.162;7.560;2022-10-17T08:29:15;101316.81;;;14.44;100.00
64841;BME280;51307;52.162;7.560;2022-10-17T08:31:41;101317.13;;;14.49;100.00
64841;BME280;51307;52.162;7.560;2022-10-17T08:34:07;101306.44;;;14.51;100.00
64841;BME280;51307;52.162;7.560;2022-10-17T08:36:33;101313.19;;;14.53;100.00
64841;BME280;51307;52.162;7.560;2022-10-17T08:38:58;101313.84;;;14.55;100.00
64841;BME280;51307;52.162;7.560;2022-10-17T08:44:51;101308.88;;;14.60;100.00
64841;BME280;51307;52.162;7.560;2022-10-17T08:47:35;101308.53;;;14.64;100.00
64841;BME280;51307;52.162;7.560;2022-10-17T08:50:06;101317.09;;;14.66;100.00
64841;BME280;51307;52.162;7.560;2022-10-17T08:53:03;101313.47;;;14.67;100.00
64841;BME280;51307;52.162;7.560;2022-10-17T08:55:44;101316.56;;;14.70;100.00
64841;BME280;51307;52.162;7.560;2022-10-17T08:58:27;101325.97;;;14.73;100.00
64841;BME280;51307;52.162;7.560;2022-10-17T09:06:54;101344.16;;;14.82;100.00
64841;BME280;51307;52.162;7.560;2022-10-17T09:12:19;101335.28;;;14.92;100.00
64841;BME280;51307;52.162;7.560;2022-10-17T09:15:21;101343.31;;;14.98;100.00
64841;BME280;51307;52.162;7.560;2022-10-17T09:20:51;101340.00;;;15.13;100.00
64841;BME280;51307;52.162;7.560;2022-10-17T09:23:22;101347.03;;;15.20;100.00
64841;BME280;51307;52.162;7.560;2022-10-17T09:25:53;101347.97;;;15.28;100.00
64841;BME280;51307;52.162;7.560;2022-10-17T09:28:33;101347.19;;;15.35;100.00
64841;BME280;51307;52.162;7.560;2022-10-17T09:33:54;101339.38;;;15.50;100.00
64841;BME280;51307;52.162;7.560;2022-10-17T09:36:31;101345.75;;;15.56;100.00
64841;BME280;51307;52.162;7.560;2022-10-17T09:44:32;101384.34;;;15.72;100.00
64841;BME280;51307;52.162;7.560;2022-10-17T09:49:42;101397.75;;;15.85;100.00
64841;BME280;51307;52.162;7.560;2022-10-17T09:55:39;101410.25;;;15.91;100.00
64841;BME280;51307;52.162;7.560;2022-10-17T09:57:59;101410.75;;;15.95;100.00
64841;BME280;51307;52.162;7.560;2022-10-17T10:00:45;101414.03;;;15.97;100.00
64841;BME280;51307;52.162;7.560;2022-10-17T10:05:37;101417.22;;;16.07;100.00
64841;BME280;51307;52.162;7.560;2022-10-17T10:08:11;101421.00;;;16.13;100.00
64841;BME280;51307;52.162;7.560;2022-10-17T10:10:38;101414.22;;;16.18;100.00
64841;BME280;51307;52.162;7.560;2022-10-17T10:15:44;101422.25;;;16.25;100.00
64841;BME280;51307;52.162;7.560;2022-10-17T10:18:33;101428.19;;;16.27;100.00
64841;BME280;51307;52.162;7.560;2022-10-17T10:21:15;101430.63;;;16.29;100.00
64841;BME280;51307;52.162;7.560;2022-10-17T10:23:43;101434.91;;;16.30;100.00
64841;BME280;51307;52.162;7.560;2022-10-17T10:26:39;101443.28;;;16.33;100.00
64841;BME280;51307;52.162;7.560;2022-10-17T10:31:54;101436.84;;;16.36;100.00
64841;BME280;51307;52.162;7.560;2022-10-17T10:34:25;101444.44;;;16.39;100.00
64841;BME280;51307;52.162;7.560;2022-10-17T10:37:13;101446.06;;;16.40;100.00
64841;BME280;51307;52.162;7.560;2022-10-17T10:39:47;101452.81;;;16.42;100.00
64841;BME280;51307;52.162;7.560;2022-10-17T10:42:36;101463.34;;;16.42;100.00
64841;BME280;51307;52.162;7.560;2022-10-17T10:47:56;101469.44;;;16.43;100.00
64841;BME280;51307;52.162;7.560;2022-10-17T10:50:30;101486.06;;;16.43;100.00
64841;BME280;51307;52.162;7.560;2022-10-17T10:55:59;101501.06;;;16.43;100.00
64841;BME280;51307;52.162;7.560;2022-10-17T11:01:27;101510.28;;;16.47;100.00
64841;BME280;51307;52.162;7.560;2022-10-17T11:06:43;101516.69;;;16.44;100.00
64841;BME280;51307;52.162;7.560;2022-10-17T11:11:53;101504.16;;;16.46;100.00
64841;BME280;51307;52.162;7.560;2022-10-17T11:14:42;101507.66;;;16.47;100.00
64841;BME280;51307;52.162;7.560;2022-10-17T11:22:46;101507.00;;;16.45;100.00
64841;BME280;51307;52.162;7.560;2022-10-17T11:25:21;101505.81;;;16.48;100.00
64841;BME280;51307;52.162;7.560;2022-10-17T11:27:49;101487.38;;;16.48;100.00
64841;BME280;51307;52.162;7.560;2022-10-17T11:30:15;101471.19;;;16.51;100.00
64841;BME280;51307;52.162;7.560;2022-10-17T11:32:50;101507.13;;;16.52;100.00
64841;BME280;51307;52.162;7.560;2022-10-17T11:35:35;101523.09;;;16.50;100.00
64841;BME280;51307;52.162;7.560;2022-10-17T11:40:37;101531.19;;;16.49;100.00
64841;BME280;51307;52.162;7.560;2022-10-17T11:45:53;101536.44;;;16.49;100.00
64841;BME280;51307;52.162;7.560;2022-10-17T11:48:34;101531.19;;;16.49;100.00
64841;BME280;51307;52.162;7.560;2022-10-17T11:51:11;101519.00;;;16.48;100.00
64841;BME280;51307;52.162;7.560;2022-10-17T11:53:53;101521.47;;;16.49;100.00
64841;BME280;51307;52.162;7.560;2022-10-17T11:56:52;101523.91;;;16.51;100.00
64841;BME280;51307;52.162;7.560;2022-10-17T11:59:47;101531.00;;;16.50;100.00
64841;BME280;51307;52.162;7.560;2022-10-17T12:02:29;101540.75;;;16.50;100.00
64841;BME280;51307;52.162;7.560;2022-10-17T12:08:06;101539.44;;;16.45;100.00
64841;BME280;51307;52.162;7.560;2022-10-17T12:15:53;101547.53;;;16.44;100.00
64841;BME280;51307;52.162;7.560;2022-10-17T12:18:18;101552.78;;;16.44;100.00
64841;BME280;51307;52.162;7.560;2022-10-17T12:20:56;101532.72;;;16.43;100.00
64841;BME280;51307;52.162;7.560;2022-10-17T12:23:26;101537.97;;;16.43;100.00
64841;BME280;51307;52.162;7.560;2022-10-17T12:25:58;101544.06;;;16.43;100.00
64841;BME280;51307;52.162;7.560;2022-10-17T12:28:41;101552.13;;;16.42;100.00
64841;BME280;51307;52.162;7.560;2022-10-17T12:31:21;101538.16;;;16.41;100.00
64841;BME280;51307;52.162;7.560;2022-10-17T12:33:52;101538.16;;;16.41;100.00
64841;BME280;51307;52.162;7.560;2022-10-17T12:38:51;101531.91;;;16.42;100.00
64841;BME280;51307;52.162;7.560;2022-10-17T12:52:19;101540.41;;;16.44;100.00
64841;BME280;51307;52.162;7.560;2022-10-17T12:57:58;101545.88;;;16.43;100.00
64841;BME280;51307;52.162;7.560;2022-10-17T13:03:40;101540.63;;;16.43;100.00
64841;BME280;51307;52.162;7.560;2022-10-17T13:06:05;101548.03;;;16.39;100.00
64841;BME280;51307;52.162;7.560;2022-10-17T13:08:37;101565.69;;;16.39;100.00
64841;BME280;51307;52.162;7.560;2022-10-17T13:11:04;101564.84;;;16.38;100.00
64841;BME280;51307;52.162;7.560;2022-10-17T13:13:43;101575.41;;;16.38;100.00
64841;BME280;51307;52.162;7.560;2022-10-17T13:16:34;101571.94;;;16.38;100.00
64841;BME280;51307;52.162;7.560;2022-10-17T13:19:03;101572.78;;;16.38;100.00
64841;BME280;51307;52.162;7.560;2022-10-17T13:21:29;101580.69;;;16.38;100.00
64841;BME280;51307;52.162;7.560;2022-10-17T13:23:55;101592.03;;;16.39;100.00
64841;BME280;51307;52.162;7.560;2022-10-17T13:26:26;101588.59;;;16.38;100.00
64841;BME280;51307;52.162;7.560;2022-10-17T13:29:13;101591.22;;;16.38;100.00
64841;BME280;51307;52.162;7.560;2022-10-17T13:31:41;101597.63;;;16.36;100.00
64841;BME280;51307;52.162;7.560;2022-10-17T13:34:22;101589.72;;;16.36;100.00
64841;BME280;51307;52.162;7.560;2022-10-17T13:36:52;101597.00;;;16.34;100.00
64841;BME280;51307;52.162;7.560;2022-10-17T13:39:22;101608.53;;;16.33;100.00
64841;BME280;51307;52.162;7.560;2022-10-17T13:41:50;101609.34;;;16.33;100.00
64841;BME280;51307;52.162;7.560;2022-10-17T13:44:20;101609.53;;;16.32;100.00
64841;BME280;51307;52.162;7.560;2022-10-17T13:46:49;101607.03;;;16.30;100.00
64841;BME280;51307;52.162;7.560;2022-10-17T13:49:41;101608.84;;;16.30;100.00
64841;BME280;51307;52.162;7.560;2022-10-17T13:52:17;101616.09;;;16.27;100.00
64841;BME280;51307;52.162;7.560;2022-10-17T13:54:47;101613.47;;;16.27;100.00
64841;BME280;51307;52.162;7.560;2022-10-17T13:57:28;101614.28;;;16.28;100.00
64841;BME280;51307;52.162;7.560;2022-10-17T14:00:06;101619.56;;;16.28;100.00
64841;BME280;51307;52.162;7.560;2022-10-17T14:02:35;101625.63;;;16.29;100.00
64841;BME280;51307;52.162;7.560;2022-10-17T14:07:49;101622.19;;;16.28;100.00
64841;BME280;51307;52.162;7.560;2022-10-17T14:12:53;101622.34;;;16.26;100.00
64841;BME280;51307;52.162;7.560;2022-10-17T14:15:26;101624.81;;;16.28;100.00
64841;BME280;51307;52.162;7.560;2022-10-17T14:18:00;101629.09;;;16.29;100.00
64841;BME280;51307;52.162;7.560;2022-10-17T14:20:27;101624.66;;;16.30;100.00
64841;BME280;51307;52.162;7.560;2022-10-17T14:22:54;101617.72;;;16.29;100.00
64841;BME280;51307;52.162;7.560;2022-10-17T14:25:36;101607.19;;;16.29;100.00
64841;BME280;51307;52.162;7.560;2022-10-17T14:30:35;101612.47;;;16.29;100.00
64841;BME280;51307;52.162;7.560;2022-10-17T14:33:05;101622.03;;;16.30;100.00
64841;BME280;51307;52.162;7.560;2022-10-17T14:35:31;101637.00;;;16.29;100.00
64841;BME280;51307;52.162;7.560;2022-10-17T14:38:01;101639.63;;;16.29;100.00
64841;BME280;51307;52.162;7.560;2022-10-17T14:40:28;101634.34;;;16.29;100.00
64841;BME280;51307;52.162;7.560;2022-10-17T14:42:57;101636.03;;;16.30;100.00
64841;BME280;51307;52.162;7.560;2022-10-17T14:45:31;101641.44;;;16.29;100.00
64841;BME280;51307;52.162;7.560;2022-10-17T14:48:10;101655.44;;;16.29;100.00
64841;BME280;51307;52.162;7.560;2022-10-17T14:50:36;101643.28;;;16.28;100.00
64841;BME280;51307;52.162;7.560;2022-10-17T14:55:32;101643.94;;;16.30;100.00
64841;BME280;51307;52.162;7.560;2022-10-17T14:57:57;101651.72;;;16.32;100.00
64841;BME280;51307;52.162;7.560;2022-10-17T15:00:23;101658.59;;;16.33;100.00
64841;BME280;51307;52.162;7.560;2022-10-17T15:02:52;101659.63;;;16.32;100.00
64841;BME280;51307;52.162;7.560;2022-10-17T15:05:18;101657.78;;;16.32;100.00
64841;BME280;51307;52.162;7.560;2022-10-17T15:07:45;101662.25;;;16.32;100.00
64841;BME280;51307;52.162;7.560;2022-10-17T15:10:24;101667.31;;;16.33;100.00
64841;BME280;51307;52.162;7.560;2022-10-17T15:12:52;101669.97;;;16.33;100.00
64841;BME280;51307;52.162;7.560;2022-10-17T15:15:17;101671.78;;;16.33;100.00
64841;BME280;51307;52.162;7.560;2022-10-17T15:17:43;101671.78;;;16.33;100.00
64841;BME280;51307;52.162;7.560;2022-10-17T15:20:14;101678.88;;;16.32;100.00